createdAt,value
2023-03-29T11:45:27.543Z,51.8709
2023-03-29T11:46:22.464Z,55.1064
2023-03-29T11:47:24.865Z,55.6789
2023-03-29T11:58:54.896Z,48.8903
2023-03-29T12:03:14.776Z,46.5083
2023-03-29T12:04:11.034Z,49.2855
2023-03-29T12:05:57.752Z,47.5867
2023-03-29T12:17:01.451Z,43.2795
2023-03-29T12:22:38.952Z,44.2275
2023-03-29T12:23:34.269Z,47.2773
2023-03-29T12:24:36.853Z,47.9671
2023-03-29T12:25:39.431Z,48.2099
2023-03-29T12:26:42.017Z,48.3085
2023-03-29T12:27:44.628Z,48.1978
2023-03-29T12:28:47.158Z,47.8590
2023-03-29T12:29:49.733Z,47.8749
2023-03-29T12:30:52.314Z,47.5060
2023-03-29T12:31:55.014Z,47.4814
2023-03-29T12:32:57.521Z,47.3431
2023-03-29T12:34:00.043Z,47.3736
2023-03-29T12:35:02.611Z,47.4909
2023-03-29T12:36:05.233Z,47.4530
2023-03-29T12:37:07.762Z,47.4002
2023-03-29T12:38:10.406Z,47.3629
2023-03-29T12:39:12.938Z,47.3644
2023-03-29T12:40:15.544Z,47.1748
2023-03-29T12:41:18.089Z,47.1226
2023-03-29T12:42:20.698Z,47.2784
2023-03-29T12:43:23.291Z,47.2655
2023-03-29T12:44:25.818Z,47.1059
2023-03-29T12:45:28.406Z,48.0028
2023-03-29T12:46:31.026Z,47.9468
2023-03-29T12:47:33.632Z,47.4581
2023-03-29T12:48:36.189Z,47.2571
2023-03-29T12:49:38.694Z,47.2694
2023-03-29T12:50:41.318Z,47.3710
2023-03-29T12:51:43.917Z,47.4975
2023-03-29T12:52:46.444Z,47.3241
2023-03-29T12:53:49.076Z,47.2232
2023-03-29T12:54:51.752Z,47.2052
2023-03-29T12:55:54.180Z,47.2305
2023-03-29T12:56:56.952Z,47.2829
2023-03-29T12:57:59.476Z,47.2000
2023-03-29T12:59:02.108Z,47.2688
2023-03-29T13:00:04.686Z,47.3167
2023-03-29T13:01:07.400Z,47.4002
2023-03-29T13:02:09.715Z,47.5395
2023-03-29T13:03:12.503Z,47.6498
2023-03-29T13:04:15.072Z,47.5330
2023-03-29T13:05:17.588Z,47.4241
2023-03-29T13:06:20.112Z,47.2963
2023-03-29T13:07:22.779Z,47.3289
2023-03-29T13:08:25.180Z,47.3247
2023-03-29T13:09:27.900Z,47.3585
2023-03-29T13:10:30.502Z,47.1093
2023-03-29T13:11:32.862Z,46.8635
2023-03-29T13:12:35.549Z,46.9748
2023-03-29T13:13:38.071Z,47.3161
2023-03-29T13:14:40.824Z,47.2242
2023-03-29T13:15:44.794Z,47.1530
2023-03-29T13:16:45.877Z,47.5603
2023-03-29T13:17:48.463Z,47.8009
2023-03-29T13:18:51.015Z,47.7673
2023-03-29T13:19:53.487Z,47.5171
2023-03-29T13:20:56.156Z,47.5342
2023-03-29T13:21:58.564Z,47.5590
2023-03-29T13:23:01.352Z,47.6662
2023-03-29T13:24:03.893Z,47.9178
2023-03-29T13:25:06.362Z,47.7252
2023-03-29T13:26:09.022Z,47.6308
2023-03-29T13:27:11.615Z,47.7732
2023-03-29T13:28:14.187Z,47.5527
2023-03-29T13:29:16.661Z,47.4017
2023-03-29T13:30:19.422Z,47.3716
2023-03-29T13:31:21.783Z,47.3081
2023-03-29T13:32:24.394Z,47.4450
2023-03-29T13:33:27.074Z,47.5321
2023-03-29T13:34:29.454Z,47.7344
2023-03-29T13:35:32.099Z,47.5537
2023-03-29T13:36:34.784Z,47.4956
2023-03-29T13:37:37.183Z,47.9356
2023-03-29T13:38:39.782Z,48.0731
2023-03-29T13:39:42.352Z,47.9039
2023-03-29T13:40:44.955Z,48.2300
2023-03-29T13:41:47.696Z,48.3157
2023-03-29T13:42:50.298Z,48.2687
2023-03-29T13:43:52.652Z,48.1833
2023-03-29T13:44:55.385Z,48.0300
2023-03-29T13:45:57.866Z,48.1173
2023-03-29T13:47:00.428Z,48.2585
2023-03-29T13:48:05.738Z,48.2525
2023-03-29T13:49:05.772Z,48.2578
2023-03-29T13:50:08.104Z,48.6150
2023-03-29T13:51:10.889Z,48.6766
2023-03-29T13:52:13.453Z,48.4901
2023-03-29T13:53:16.035Z,48.3203
2023-03-29T13:54:18.600Z,48.2810
2023-03-29T13:55:21.244Z,48.2970
2023-03-29T13:56:23.871Z,48.0653
2023-03-29T13:57:26.272Z,47.8153
2023-03-29T13:58:28.882Z,47.5404
2023-03-29T13:59:31.430Z,47.4858
2023-03-29T14:00:33.879Z,47.6015
2023-03-29T14:01:36.539Z,47.6880
2023-03-29T14:02:39.501Z,47.5706
2023-03-29T14:03:41.792Z,47.4998
2023-03-29T14:04:44.171Z,47.4600
2023-03-29T14:05:46.757Z,47.4272
2023-03-29T14:06:49.356Z,47.5052
2023-03-29T14:07:51.982Z,47.7417
2023-03-29T14:08:54.646Z,47.6904
2023-03-29T14:09:57.274Z,47.5570
2023-03-29T14:10:59.833Z,47.3688
2023-03-29T14:12:02.416Z,47.3577
2023-03-29T14:13:04.955Z,47.3732
2023-03-29T14:14:07.513Z,47.4308
2023-03-29T14:15:09.901Z,47.7813
2023-03-29T14:16:12.696Z,48.2079
2023-03-29T14:17:15.281Z,48.4074
2023-03-29T14:18:17.865Z,48.2021
2023-03-29T14:19:20.417Z,48.0584
2023-03-29T14:20:22.790Z,47.8012
2023-03-29T14:21:25.354Z,47.6593
2023-03-29T14:22:28.159Z,47.6873
2023-03-29T14:23:30.694Z,47.6313
2023-03-29T14:24:33.068Z,47.6340
2023-03-29T14:25:35.879Z,47.6213
2023-03-29T14:26:38.428Z,47.6509
2023-03-29T14:27:41.073Z,47.6837
2023-03-29T14:28:43.537Z,47.7413
2023-03-29T14:29:45.993Z,47.9406
2023-03-29T14:30:48.551Z,47.9555
2023-03-29T14:31:51.380Z,48.0476
2023-03-29T14:32:53.957Z,48.1326
2023-03-29T14:33:56.284Z,48.0765
2023-03-29T14:34:58.831Z,48.1015
2023-03-29T14:36:01.834Z,47.9867
2023-03-29T14:37:04.206Z,48.0437
2023-03-29T14:38:06.618Z,48.0341
2023-03-29T14:39:09.283Z,47.9955
2023-03-29T14:40:11.739Z,47.9727
2023-03-29T14:41:14.456Z,48.0052
2023-03-29T14:42:17.053Z,48.0253
2023-03-29T14:43:19.603Z,48.1245
2023-03-29T14:44:22.810Z,47.9661
2023-03-29T14:45:24.606Z,47.9288
2023-03-29T14:46:27.356Z,47.9642
2023-03-29T14:47:29.852Z,47.9164
2023-03-29T14:48:32.538Z,47.9826
2023-03-29T14:49:34.897Z,48.0554
2023-03-29T14:50:37.640Z,48.0935
2023-03-29T14:51:40.007Z,48.3697
2023-03-29T14:52:43.889Z,48.3696
2023-03-29T14:53:45.360Z,48.3957
2023-03-29T14:54:47.898Z,48.4931
2023-03-29T14:55:50.493Z,48.6338
2023-03-29T14:56:52.926Z,48.8230
2023-03-29T14:57:55.669Z,48.9299
2023-03-29T14:58:58.227Z,49.0897
2023-03-29T15:00:00.632Z,49.1880
2023-03-29T15:01:03.476Z,49.2142
2023-03-29T15:02:05.940Z,49.1799
2023-03-29T15:03:08.644Z,49.1201
2023-03-29T15:04:10.964Z,49.1514
2023-03-29T15:05:13.733Z,49.1431
2023-03-29T15:06:16.307Z,49.0882
2023-03-29T15:07:18.880Z,49.1249
2023-03-29T15:08:21.398Z,49.0374
2023-03-29T15:09:24.006Z,49.0229
2023-03-29T15:10:26.435Z,49.0350
2023-03-29T15:11:29.198Z,48.9690
2023-03-29T15:12:31.546Z,48.9448
2023-03-29T15:13:34.119Z,48.8576
2023-03-29T15:14:36.805Z,48.8871
2023-03-29T15:15:39.425Z,48.7449
2023-03-29T15:16:41.848Z,48.8106
2023-03-29T15:17:51.591Z,48.7376
2023-03-29T15:18:48.056Z,48.7543
2023-03-29T15:19:49.679Z,48.7770
2023-03-29T15:20:52.118Z,48.7317
2023-03-29T15:21:54.797Z,48.7631
2023-03-29T15:22:57.524Z,48.6637
2023-03-29T15:24:00.050Z,48.6859
2023-03-29T15:25:02.487Z,48.6868
2023-03-29T15:26:05.127Z,48.6776
2023-03-29T15:27:07.833Z,48.5698
2023-03-29T15:28:10.451Z,48.5435
2023-03-29T15:29:12.879Z,48.4379
2023-03-29T15:30:15.513Z,48.4569
2023-03-29T15:31:18.090Z,48.3954
2023-03-29T15:32:20.690Z,48.2902
2023-03-29T15:33:23.390Z,48.2683
2023-03-29T15:34:25.847Z,48.2804
2023-03-29T15:35:28.376Z,48.2238
2023-03-29T15:36:30.981Z,48.2817
2023-03-29T15:37:33.543Z,48.3137
2023-03-29T15:38:43.345Z,48.2945
2023-03-29T15:39:39.878Z,48.2557
2023-03-29T15:40:41.343Z,48.1658
2023-03-29T15:41:43.846Z,48.1552
2023-03-29T15:42:46.452Z,48.1585
2023-03-29T15:43:49.066Z,48.1496
2023-03-29T15:44:51.614Z,48.1239
2023-03-29T15:45:54.227Z,48.0683
2023-03-29T15:46:56.788Z,48.0706
2023-03-29T15:47:59.328Z,48.0753
2023-03-29T15:49:01.897Z,48.0468
2023-03-29T15:50:04.405Z,48.0731
2023-03-29T15:51:07.227Z,48.0593
2023-03-29T15:52:09.598Z,47.9424
2023-03-29T15:53:15.392Z,47.8975
2023-03-29T15:54:14.777Z,47.8707
2023-03-29T15:55:17.264Z,47.9419
2023-03-29T15:56:19.916Z,47.9745
2023-03-29T15:57:22.443Z,47.9733
2023-03-29T15:58:25.279Z,47.9100
2023-03-29T15:59:27.707Z,47.9113
2023-03-29T16:00:30.236Z,47.9573
2023-03-29T16:01:32.826Z,47.9524
2023-03-29T16:02:35.449Z,47.9130
2023-03-29T16:03:37.959Z,47.8585
2023-03-29T16:04:40.537Z,47.7983
2023-03-29T16:05:42.933Z,47.7785
2023-03-29T16:06:45.924Z,47.7785
2023-03-29T16:07:48.260Z,47.7278
2023-03-29T16:08:50.848Z,47.6907
2023-03-29T16:09:53.192Z,47.6665
2023-03-29T16:10:55.915Z,47.6598
2023-03-29T16:11:58.596Z,47.6131
2023-03-29T16:13:01.145Z,47.6226
2023-03-29T16:14:03.710Z,47.6324
2023-03-29T16:15:06.273Z,47.6984
2023-03-29T16:16:08.917Z,47.6168
2023-03-29T16:17:11.467Z,47.6276
2023-03-29T16:18:13.996Z,47.6425
2023-03-29T16:19:16.598Z,47.6334
2023-03-29T16:20:19.047Z,47.5999
2023-03-29T16:21:21.906Z,47.6016
2023-03-29T16:22:24.370Z,47.6256
2023-03-29T16:23:26.901Z,47.6152
2023-03-29T16:24:29.366Z,47.5696
2023-03-29T16:25:32.030Z,47.5361
2023-03-29T16:26:34.590Z,47.4891
2023-03-29T16:27:37.210Z,47.4950
2023-03-29T16:28:39.801Z,47.5094
2023-03-29T16:29:42.418Z,47.5036
2023-03-29T16:30:44.938Z,47.4908
2023-03-29T16:31:47.699Z,47.4673
2023-03-29T16:32:50.264Z,47.4484
2023-03-29T16:33:52.720Z,47.4348
2023-03-29T16:34:55.253Z,47.4357
2023-03-29T16:35:57.711Z,47.4142
2023-03-29T16:37:00.633Z,47.4189
2023-03-29T16:38:03.053Z,47.3887
2023-03-29T16:39:05.408Z,47.3916
2023-03-29T16:40:07.886Z,47.3860
2023-03-29T16:41:10.633Z,47.3764
2023-03-29T16:42:13.272Z,47.3828
2023-03-29T16:43:15.625Z,47.3012
2023-03-29T16:44:20.192Z,47.2479
2023-03-29T16:45:20.939Z,47.2037
2023-03-29T16:46:23.612Z,47.1439
2023-03-29T16:47:26.227Z,47.0695
2023-03-29T16:48:28.763Z,47.0054
2023-03-29T16:49:31.276Z,46.9099
2023-03-29T16:50:34.104Z,46.8452
2023-03-29T16:51:36.435Z,46.7987
2023-03-29T16:52:38.868Z,46.7684
2023-03-29T16:53:41.638Z,46.7251
2023-03-29T16:54:44.199Z,46.7154
2023-03-29T16:55:46.788Z,46.6670
2023-03-29T16:56:49.393Z,46.6640
2023-03-29T16:57:51.860Z,46.6245
2023-03-29T16:58:54.544Z,46.6336
2023-03-29T16:59:57.053Z,46.5660
2023-03-29T17:00:59.665Z,46.5859
2023-03-29T17:02:02.376Z,46.5068
2023-03-29T17:03:04.867Z,46.4394
2023-03-29T17:04:07.457Z,46.4549
2023-03-29T17:05:09.863Z,46.4041
2023-03-29T17:06:12.520Z,46.3774
2023-03-29T17:07:15.102Z,46.3405
2023-03-29T17:08:17.670Z,46.2757
2023-03-29T17:09:20.464Z,46.2703
2023-03-29T17:10:22.758Z,46.2622
2023-03-29T17:11:25.355Z,46.2107
2023-03-29T17:12:27.917Z,46.2024
2023-03-29T17:13:30.551Z,46.1939
2023-03-29T17:14:33.175Z,46.1429
2023-03-29T17:15:38.124Z,46.0774
2023-03-29T17:16:38.424Z,46.0834
2023-03-29T17:17:40.701Z,46.0225
2023-03-29T17:18:43.419Z,45.9939
2023-03-29T17:19:46.055Z,45.9583
2023-03-29T17:20:48.752Z,45.9359
2023-03-29T17:21:51.807Z,45.9035
2023-03-29T17:22:53.731Z,45.8645
2023-03-29T17:23:56.328Z,45.7990
2023-03-29T17:24:58.916Z,45.7220
2023-03-29T17:26:01.792Z,45.6860
2023-03-29T17:27:03.791Z,45.6402
2023-03-29T17:28:06.608Z,45.6314
2023-03-29T17:29:09.238Z,45.5901
2023-03-29T17:30:11.741Z,45.5920
2023-03-29T17:31:14.383Z,45.5650
2023-03-29T17:32:16.931Z,45.5078
2023-03-29T17:33:22.221Z,45.4402
2023-03-29T17:34:22.082Z,45.3929
2023-03-29T17:35:24.673Z,45.4004
2023-03-29T17:36:27.264Z,45.3442
2023-03-29T17:37:29.805Z,45.3263
2023-03-29T17:38:32.303Z,45.2855
2023-03-29T17:39:34.946Z,45.2884
2023-03-29T17:40:37.569Z,45.2384
2023-03-29T17:41:40.100Z,45.1926
2023-03-29T17:42:42.612Z,45.1639
2023-03-29T17:43:45.264Z,45.1194
2023-03-29T17:44:47.827Z,45.0440
2023-03-29T17:45:50.487Z,45.0224
2023-03-29T17:46:52.990Z,44.9789
2023-03-29T17:47:55.664Z,44.9781
2023-03-29T17:48:58.177Z,45.0108
2023-03-29T17:50:00.928Z,45.0328
2023-03-29T17:51:03.130Z,45.0084
2023-03-29T17:52:05.871Z,44.9589
2023-03-29T17:53:08.471Z,44.9397
2023-03-29T17:54:10.927Z,44.9169
2023-03-29T17:55:13.394Z,44.8720
2023-03-29T17:56:16.244Z,44.8267
2023-03-29T17:57:18.737Z,44.8386
2023-03-29T17:58:21.425Z,44.8035
2023-03-29T17:59:23.932Z,44.8089
2023-03-29T18:00:26.518Z,44.7672
2023-03-29T18:01:29.155Z,44.7250
2023-03-29T18:02:31.970Z,44.7106
2023-03-29T18:03:34.836Z,44.6866
2023-03-29T18:04:36.815Z,44.6531
2023-03-29T18:05:39.401Z,44.6109
2023-03-29T18:06:42.008Z,44.6075
2023-03-29T18:07:44.478Z,44.6171
2023-03-29T18:08:47.163Z,44.5781
2023-03-29T18:09:49.901Z,44.5673
2023-03-29T18:10:52.314Z,44.5754
2023-03-29T18:11:54.819Z,44.5494
2023-03-29T18:12:57.377Z,44.5034
2023-03-29T18:14:00.012Z,44.5175
2023-03-29T18:15:02.774Z,44.5491
2023-03-29T18:16:05.389Z,44.5094
2023-03-29T18:17:07.837Z,44.4995
2023-03-29T18:18:10.449Z,44.5215
2023-03-29T18:19:12.922Z,44.4932
2023-03-29T18:20:15.432Z,44.4528
2023-03-29T18:21:18.073Z,44.4779
2023-03-29T18:22:20.697Z,44.3776
2023-03-29T18:23:23.115Z,44.1073
2023-03-29T18:24:25.552Z,44.5673
2023-03-29T18:25:28.115Z,44.6194
2023-03-29T18:26:30.834Z,45.2959
2023-03-29T18:27:33.516Z,45.7900
2023-03-29T18:28:36.048Z,46.5984
2023-03-29T18:29:38.421Z,47.0265
2023-03-29T18:30:41.099Z,46.0757
2023-03-29T18:31:43.707Z,46.4337
2023-03-29T18:32:46.390Z,47.5666
2023-03-29T18:33:48.914Z,48.0301
2023-03-29T18:34:51.295Z,46.4728
2023-03-29T18:35:53.894Z,46.3284
2023-03-29T18:36:56.651Z,47.0544
2023-03-29T18:37:59.048Z,46.5253
2023-03-29T18:39:01.777Z,47.0073
2023-03-29T18:40:04.884Z,47.1720
2023-03-29T18:41:06.752Z,47.2547
2023-03-29T18:42:10.923Z,47.3431
2023-03-29T18:43:12.102Z,47.3605
2023-03-29T18:44:14.725Z,47.6330
2023-03-29T18:45:17.052Z,47.6000
2023-03-29T18:46:19.843Z,48.3807
2023-03-29T18:47:22.401Z,48.8255
2023-03-29T18:48:25.012Z,48.2950
2023-03-29T18:49:27.513Z,47.6900
2023-03-29T18:50:29.984Z,47.6334
2023-03-29T18:51:32.597Z,47.4173
2023-03-29T18:52:35.174Z,47.2640
2023-03-29T18:53:37.724Z,47.3187
2023-03-29T18:54:40.236Z,47.3046
2023-03-29T18:55:42.807Z,47.2554
2023-03-29T18:56:45.637Z,47.3550
2023-03-29T18:57:48.165Z,47.5300
2023-03-29T18:58:50.925Z,47.4275
2023-03-29T18:59:53.170Z,47.4979
2023-03-29T19:00:55.737Z,47.7498
2023-03-29T19:01:58.302Z,47.8854
2023-03-29T19:03:00.940Z,48.0267
2023-03-29T19:04:03.529Z,48.0596
2023-03-29T19:05:06.054Z,48.1185
2023-03-29T19:06:08.677Z,48.2162
2023-03-29T19:07:11.223Z,48.2772
2023-03-29T19:08:13.823Z,48.3287
2023-03-29T19:09:16.420Z,48.3574
2023-03-29T19:10:18.990Z,48.3457
2023-03-29T19:11:21.528Z,48.3561
2023-03-29T19:12:24.077Z,48.3827
2023-03-29T19:13:26.666Z,48.4146
2023-03-29T19:14:29.309Z,48.4124
2023-03-29T19:15:31.840Z,48.4601
2023-03-29T19:16:34.405Z,48.5042
2023-03-29T19:17:37.026Z,48.5361
2023-03-29T19:18:39.567Z,48.5377
2023-03-29T19:19:42.154Z,48.5374
2023-03-29T19:20:44.775Z,48.5260
2023-03-29T19:21:47.305Z,48.5434
2023-03-29T19:22:49.859Z,48.6068
2023-03-29T19:23:52.561Z,48.6158
2023-03-29T19:24:55.333Z,48.6287
2023-03-29T19:25:57.595Z,48.6239
2023-03-29T19:27:00.158Z,48.6174
2023-03-29T19:28:02.727Z,48.6256
2023-03-29T19:29:05.334Z,48.6144
2023-03-29T19:30:07.909Z,48.6419
2023-03-29T19:31:10.549Z,48.6739
2023-03-29T19:32:13.069Z,48.6606
2023-03-29T19:33:15.659Z,48.6921
2023-03-29T19:34:18.255Z,48.6924
2023-03-29T19:35:20.859Z,48.6919
2023-03-29T19:36:23.381Z,48.6820
2023-03-29T19:37:25.965Z,48.6920
2023-03-29T19:38:28.537Z,48.7095
2023-03-29T19:39:31.136Z,48.7373
2023-03-29T19:40:33.720Z,48.7868
2023-03-29T19:41:36.286Z,48.7771
2023-03-29T19:42:38.841Z,48.6932
2023-03-29T19:43:41.461Z,48.7223
2023-03-29T19:44:43.992Z,48.7488
2023-03-29T19:45:46.603Z,48.7587
2023-03-29T19:46:49.210Z,48.7237
2023-03-29T19:47:54.661Z,48.6829
2023-03-29T19:48:54.296Z,48.7054
2023-03-29T19:50:04.266Z,48.7397
2023-03-29T19:50:59.462Z,48.7883
2023-03-29T19:52:01.989Z,48.7674
2023-03-29T19:53:04.619Z,48.7583
2023-03-29T19:54:07.234Z,48.7706
2023-03-29T19:55:09.764Z,48.7371
2023-03-29T19:56:12.403Z,48.7408
2023-03-29T19:57:14.950Z,48.7164
2023-03-29T19:58:17.526Z,48.7167
2023-03-29T19:59:20.161Z,48.7476
2023-03-29T20:00:22.639Z,48.7864
2023-03-29T20:01:25.292Z,48.8373
2023-03-29T20:02:27.823Z,48.8249
2023-03-29T20:03:30.516Z,48.8546
2023-03-29T20:04:33.118Z,48.8851
2023-03-29T20:05:35.550Z,48.9008
2023-03-29T20:06:38.151Z,48.9452
2023-03-29T20:07:40.808Z,49.0254
2023-03-29T20:08:43.329Z,49.0060
2023-03-29T20:09:45.910Z,49.0210
2023-03-29T20:10:48.429Z,49.0244
2023-03-29T20:11:50.991Z,49.0026
2023-03-29T20:12:53.603Z,48.9714
2023-03-29T20:13:56.198Z,49.0855
2023-03-29T20:14:58.737Z,49.1754
2023-03-29T20:16:01.376Z,49.1930
2023-03-29T20:17:03.940Z,49.2638
2023-03-29T20:18:06.526Z,49.2931
2023-03-29T20:19:09.059Z,49.4884
2023-03-29T20:20:11.591Z,49.4162
2023-03-29T20:21:14.224Z,49.4084
2023-03-29T20:22:16.814Z,49.3829
2023-03-29T20:23:19.355Z,49.3636
2023-03-29T20:24:21.977Z,49.3389
2023-03-29T20:25:24.531Z,49.3986
2023-03-29T20:26:27.132Z,49.3974
2023-03-29T20:27:29.692Z,49.4207
2023-03-29T20:28:32.267Z,49.4654
2023-03-29T20:29:34.912Z,49.5088
2023-03-29T20:30:37.411Z,49.5422
2023-03-29T20:31:40.035Z,49.5571
2023-03-29T20:32:42.667Z,49.4830
2023-03-29T20:33:45.236Z,49.4967
2023-03-29T20:34:47.821Z,49.5480
2023-03-29T20:35:50.416Z,49.5908
2023-03-29T20:36:53.053Z,49.5753
2023-03-29T20:37:56.997Z,49.5917
2023-03-29T20:38:58.133Z,49.6209
2023-03-29T20:40:00.703Z,49.6545
2023-03-29T20:41:03.504Z,49.6978
2023-03-29T20:42:05.886Z,49.7189
2023-03-29T20:43:08.483Z,49.7124
2023-03-29T20:44:11.061Z,49.7855
2023-03-29T20:45:13.572Z,49.8418
2023-03-29T20:46:16.182Z,49.8058
2023-03-29T20:47:18.768Z,49.8285
2023-03-29T20:48:21.377Z,49.8553
2023-03-29T20:49:23.894Z,49.8533
2023-03-29T20:50:26.473Z,49.8689
2023-03-29T20:51:29.105Z,49.9072
2023-03-29T20:52:31.676Z,49.9509
2023-03-29T20:53:34.277Z,49.9484
2023-03-29T20:54:36.809Z,49.9552
2023-03-29T20:55:39.392Z,49.9371
2023-03-29T20:56:42.081Z,49.9368
2023-03-29T20:57:44.642Z,49.9535
2023-03-29T20:58:47.186Z,49.9496
2023-03-29T20:59:49.691Z,49.9817
2023-03-29T21:00:52.300Z,50.0063
2023-03-29T21:01:54.917Z,50.0319
2023-03-29T21:02:57.586Z,50.0472
2023-03-29T21:04:00.083Z,50.0556
2023-03-29T21:05:02.636Z,50.0390
2023-03-29T21:06:05.180Z,50.0247
2023-03-29T21:07:08.152Z,50.0333
2023-03-29T21:08:10.350Z,50.0862
2023-03-29T21:09:12.942Z,50.0738
2023-03-29T21:10:15.471Z,50.0484
2023-03-29T21:11:18.059Z,50.0557
2023-03-29T21:12:20.677Z,50.0572
2023-03-29T21:13:23.224Z,50.0752
2023-03-29T21:14:25.838Z,50.0776
2023-03-29T21:15:28.454Z,50.0363
2023-03-29T21:16:31.149Z,50.1113
2023-03-29T21:17:33.627Z,50.1341
2023-03-29T21:18:36.162Z,50.1667
2023-03-29T21:19:38.780Z,50.1983
2023-03-29T21:20:41.308Z,50.2051
2023-03-29T21:21:43.888Z,50.1559
2023-03-29T21:22:46.676Z,50.1753
2023-03-29T21:23:49.139Z,50.3616
2023-03-29T21:24:51.905Z,50.8508
2023-03-29T21:25:54.165Z,50.9984
2023-03-29T21:26:56.741Z,51.1718
2023-03-29T21:27:59.356Z,51.3014
2023-03-29T21:29:01.935Z,51.2779
2023-03-29T21:30:04.511Z,51.2527
2023-03-29T21:31:07.268Z,51.1772
2023-03-29T21:32:09.641Z,51.0897
2023-03-29T21:33:12.247Z,51.0412
2023-03-29T21:34:14.873Z,51.0431
2023-03-29T21:35:17.425Z,51.0108
2023-03-29T21:36:20.014Z,51.0462
2023-03-29T21:37:22.548Z,51.0208
2023-03-29T21:38:25.124Z,51.2161
2023-03-29T21:39:27.725Z,51.2734
2023-03-29T21:40:30.324Z,51.3331
2023-03-29T21:41:32.895Z,51.2801
2023-03-29T21:42:35.433Z,51.4512
2023-03-29T21:43:38.268Z,51.5265
2023-03-29T21:44:40.589Z,51.4361
2023-03-29T21:45:43.209Z,51.3862
2023-03-29T21:46:45.792Z,51.4835
2023-03-29T21:47:48.953Z,51.4724
2023-03-29T21:48:50.896Z,51.5740
2023-03-29T21:49:53.494Z,51.6177
2023-03-29T21:50:56.101Z,51.6037
2023-03-29T21:51:58.620Z,51.5998
2023-03-29T21:53:01.203Z,51.5881
2023-03-29T21:54:03.774Z,51.5257
2023-03-29T21:55:06.433Z,51.5139
2023-03-29T21:56:08.980Z,51.6261
2023-03-29T21:57:11.592Z,51.6059
2023-03-29T21:58:14.101Z,51.6334
2023-03-29T21:59:16.670Z,51.6199
2023-03-29T22:00:19.231Z,51.6008
2023-03-29T22:01:21.876Z,51.6680
2023-03-29T22:02:24.439Z,51.6236
2023-03-29T22:03:27.029Z,51.6898
2023-03-29T22:04:36.082Z,51.6632
2023-03-29T22:05:33.134Z,51.6471
2023-03-29T22:06:34.816Z,51.7027
2023-03-29T22:07:37.294Z,51.7521
2023-03-29T22:08:39.892Z,51.7297
2023-03-29T22:09:42.481Z,51.7479
2023-03-29T22:10:45.014Z,51.7435
2023-03-29T22:11:47.634Z,51.7091
2023-03-29T22:12:50.221Z,51.5767
2023-03-29T22:13:52.738Z,51.6061
2023-03-29T22:14:55.344Z,51.5669
2023-03-29T22:15:57.929Z,51.5687
2023-03-29T22:17:00.595Z,51.5963
2023-03-29T22:18:03.083Z,51.6584
2023-03-29T22:19:05.638Z,51.7352
2023-03-29T22:20:08.460Z,51.7736
2023-03-29T22:21:10.804Z,51.7884
2023-03-29T22:22:14.067Z,51.7331
2023-03-29T22:23:15.963Z,51.7705
2023-03-29T22:24:18.514Z,51.8679
2023-03-29T22:25:21.083Z,51.7849
2023-03-29T22:26:23.672Z,51.7223
2023-03-29T22:27:26.290Z,51.6957
2023-03-29T22:28:28.814Z,51.7189
2023-03-29T22:29:31.407Z,51.5639
2023-03-29T22:30:34.076Z,51.6681
2023-03-29T22:31:36.695Z,51.6673
2023-03-29T22:32:39.185Z,51.7654
2023-03-29T22:33:41.708Z,51.5731
2023-03-29T22:34:44.356Z,51.5679
2023-03-29T22:35:46.890Z,51.6525
2023-03-29T22:36:49.521Z,51.7721
2023-03-29T22:37:52.056Z,51.7500
2023-03-29T22:38:54.642Z,51.8133
2023-03-29T22:39:57.233Z,51.7956
2023-03-29T22:40:59.733Z,51.7980
2023-03-29T22:42:02.421Z,51.8710
2023-03-29T22:43:05.629Z,51.8406
2023-03-29T22:44:07.474Z,51.7100
2023-03-29T22:45:10.061Z,51.5891
2023-03-29T22:46:12.695Z,51.6951
2023-03-29T22:47:15.238Z,51.6290
2023-03-29T22:48:17.889Z,51.6096
2023-03-29T22:49:20.413Z,51.7795
2023-03-29T22:50:22.960Z,51.9759
2023-03-29T22:51:25.616Z,51.7815
2023-03-29T22:52:28.315Z,51.7322
2023-03-29T22:53:30.916Z,51.8075
2023-03-29T22:54:33.473Z,52.1666
2023-03-29T22:55:36.034Z,52.3188
2023-03-29T22:56:38.395Z,52.3727
2023-03-29T22:57:41.193Z,52.2259
2023-03-29T22:58:43.821Z,52.1467
2023-03-29T22:59:46.286Z,52.1131
2023-03-29T23:00:48.939Z,52.0363
2023-03-29T23:01:51.538Z,51.9658
2023-03-29T23:02:54.108Z,52.0741
2023-03-29T23:03:56.759Z,52.2082
2023-03-29T23:04:59.259Z,52.2144
2023-03-29T23:06:01.799Z,52.1990
2023-03-29T23:07:04.407Z,52.2992
2023-03-29T23:08:07.145Z,52.3194
2023-03-29T23:09:09.443Z,52.3557
2023-03-29T23:10:12.097Z,52.1843
2023-03-29T23:11:14.720Z,52.1609
2023-03-29T23:12:17.298Z,52.1256
2023-03-29T23:13:19.925Z,52.0876
2023-03-29T23:14:22.661Z,52.0371
2023-03-29T23:15:25.280Z,52.0495
2023-03-29T23:16:27.723Z,52.0436
2023-03-29T23:17:30.217Z,52.0626
2023-03-29T23:18:32.691Z,52.1025
2023-03-29T23:19:35.373Z,52.1315
2023-03-29T23:20:37.897Z,52.2889
2023-03-29T23:21:40.354Z,52.3276
2023-03-29T23:22:43.086Z,52.3622
2023-03-29T23:23:45.456Z,52.2814
2023-03-29T23:24:48.261Z,52.2882
2023-03-29T23:25:50.644Z,52.3113
2023-03-29T23:26:53.212Z,52.2621
2023-03-29T23:27:55.962Z,52.2948
2023-03-29T23:28:58.370Z,52.1848
2023-03-29T23:30:00.990Z,52.4980
2023-03-29T23:31:03.899Z,52.5191
2023-03-29T23:32:06.204Z,52.5203
2023-03-29T23:33:08.870Z,52.5469
2023-03-29T23:34:11.154Z,52.5068
2023-03-29T23:35:14.013Z,52.4802
2023-03-29T23:36:16.582Z,52.3058
2023-03-29T23:37:19.145Z,52.2031
2023-03-29T23:38:21.719Z,52.2055
2023-03-29T23:39:24.310Z,52.3179
2023-03-29T23:40:26.873Z,52.4735
2023-03-29T23:41:29.417Z,52.5115
2023-03-29T23:42:32.210Z,52.4218
2023-03-29T23:43:34.507Z,52.3673
2023-03-29T23:44:37.192Z,52.3166
2023-03-29T23:45:39.806Z,52.2042
2023-03-29T23:46:42.376Z,52.1491
2023-03-29T23:47:44.967Z,52.1686
2023-03-29T23:48:47.478Z,52.1860
2023-03-29T23:49:50.058Z,52.0504
2023-03-29T23:50:52.651Z,51.9882
2023-03-29T23:51:55.179Z,52.1508
2023-03-29T23:52:57.785Z,52.3018
2023-03-29T23:54:00.362Z,52.3965
2023-03-29T23:55:02.949Z,52.4057
2023-03-29T23:56:05.766Z,52.4045
2023-03-29T23:57:08.213Z,52.2551
2023-03-29T23:58:10.677Z,52.2448
2023-03-29T23:59:13.207Z,52.2363
